Time;durP1;ratioP1;P1;durP2;ratioP2;P2;SDS_P1;SDS_P2;PMS_P1;PMS_P2;Temp;Humidity;BMP_temperature;BMP_pressure;BME280_temperature;BME280_humidity;BME280_pressure;Samples;Min_cycle;Max_cycle;Signal;HPM_P1;HPM_P2
2022/05/03 01:50:44;;;;;;;9.90;7.80;;;;;;;13.07;68.91;99643.22;1070148;54;20046;31
2022/05/03 02:24:04;;;;;;;12.60;9.52;;;;;;;12.39;71.68;99647.97;1088413;54;20018;-85
2022/05/03 02:25:13;;;;;;;11.35;8.82;;;;;;;12.28;71.83;99649.97;1069730;54;21060;31
2022/05/03 02:30:57;;;;;;;10.17;8.43;;;;;;;12.04;72.55;99650.78;1069593;54;20038;31
2022/05/03 02:35:16;;;;;;;9.43;8.38;;;;;;;11.98;72.29;99651.41;1088340;54;20038;-87
2022/05/03 02:37:28;;;;;;;11.48;9.32;;;;;;;11.91;72.47;99653.88;1088719;54;20030;-84
2022/05/03 02:39:40;;;;;;;10.23;8.85;;;;;;;11.82;73.12;99642.31;1088235;54;20061;-85
2022/05/03 02:40:47;;;;;;;10.68;8.77;;;;;;;11.76;73.20;99652.84;1088243;54;20034;-86
2022/05/03 02:41:58;;;;;;;12.00;9.82;;;;;;;11.75;73.44;99649.34;1088117;54;20044;-85
2022/05/03 02:43:00;;;;;;;9.85;8.13;;;;;;;11.84;72.83;99648.34;1088284;54;20658;-85
2022/05/03 02:44:05;;;;;;;10.65;8.35;;;;;;;12.01;72.31;99649.25;1088394;54;20019;-85
2022/05/03 02:45:08;;;;;;;9.98;7.70;;;;;;;12.12;71.92;99647.25;1088333;54;20039;-85
2022/05/03 02:46:36;;;;;;;11.95;8.60;;;;;;;11.84;72.89;99644.81;1089121;47;20018;-85
2022/05/03 02:47:49;;;;;;;11.27;9.07;;;;;;;11.65;73.86;99646.75;1088095;54;20030;-86
2022/05/03 02:48:56;;;;;;;11.68;9.07;;;;;;;11.61;73.77;99640.06;1088338;54;20054;-85
2022/05/03 02:50:07;;;;;;;11.05;9.35;;;;;;;11.71;73.58;99648.78;1088270;54;20022;-84
2022/05/03 02:51:09;;;;;;;10.65;8.82;;;;;;;11.84;73.13;99640.31;1091457;47;20045;-86
2022/05/03 02:52:23;;;;;;;11.60;8.65;;;;;;;11.97;72.70;99642.56;1088984;47;20090;-85
2022/05/03 02:53:37;;;;;;;9.60;8.45;;;;;;;12.07;72.05;99636.22;1088492;54;20034;-87
2022/05/03 02:54:59;;;;;;;10.50;8.00;;;;;;;12.15;71.77;99641.59;1088669;54;20039;-87
2022/05/03 02:56:10;;;;;;;9.77;8.70;;;;;;;12.18;71.89;99641.25;1089051;39;20239;-88
2022/05/03 02:57:30;;;;;;;11.75;9.82;;;;;;;12.21;71.75;99646.28;1088666;54;20014;-86
2022/05/03 02:58:50;;;;;;;10.87;8.53;;;;;;;12.23;71.52;99649.63;1088648;54;20018;-85
2022/05/03 03:02:51;;;;;;;11.63;9.18;;;;;;;12.21;71.64;99642.75;1088610;54;20033;-85
2022/05/03 03:04:07;;;;;;;12.80;9.63;;;;;;;12.14;71.75;99643.41;1093551;39;21000;-86
2022/05/03 03:05:12;;;;;;;9.77;8.63;;;;;;;12.17;71.80;99642.25;1088619;54;20039;-85
2022/05/03 03:06:23;;;;;;;9.88;8.88;;;;;;;12.22;71.92;99637.22;1088599;54;20061;-86
2022/05/03 03:07:30;;;;;;;10.13;8.95;;;;;;;12.23;71.58;99636.22;1092218;46;20038;-86
2022/05/03 03:08:44;;;;;;;11.65;10.43;;;;;;;12.06;72.33;99642.56;1088215;54;20035;-85
2022/05/03 03:09:52;;;;;;;11.38;9.45;;;;;;;11.90;72.74;99644.19;1088632;54;20019;-85
2022/05/03 03:11:02;;;;;;;11.95;10.13;;;;;;;11.70;73.75;99643.59;1088560;54;20094;-85
2022/05/03 03:12:19;;;;;;;12.00;10.65;;;;;;;11.54;74.36;99647.06;1088305;54;20030;-87
2022/05/03 03:13:30;;;;;;;14.45;10.77;;;;;;;11.36;75.65;99645.31;1088252;54;20014;-83
2022/05/03 03:14:37;;;;;;;11.38;9.48;;;;;;;11.35;75.21;99642.78;1089275;39;20670;-85
2022/05/03 03:15:40;;;;;;;13.52;10.43;;;;;;;11.32;75.43;99638.59;1097806;31;20788;-86
2022/05/03 03:16:57;;;;;;;12.35;9.73;;;;;;;11.33;75.90;99645.63;1088224;54;20041;-87
2022/05/03 03:18:01;;;;;;;12.10;9.68;;;;;;;11.34;75.44;99646.47;1088600;54;20065;-85
2022/05/03 03:19:34;;;;;;;12.82;10.25;;;;;;;11.20;76.35;99648.72;1089770;46;20011;-86
2022/05/03 03:20:42;;;;;;;11.52;9.85;;;;;;;11.18;75.96;99645.38;1088549;54;20082;-86
2022/05/03 03:21:51;;;;;;;11.98;9.52;;;;;;;11.15;76.61;99640.34;1088626;54;20019;-84
2022/05/03 03:22:53;;;;;;;13.00;10.75;;;;;;;11.10;76.32;99644.50;1088575;54;20030;-85
2022/05/03 03:23:59;;;;;;;12.10;10.25;;;;;;;11.01;77.13;99641.78;1088407;54;20123;-86
2022/05/03 03:25:02;;;;;;;13.48;10.45;;;;;;;10.97;77.21;99643.06;1088427;54;20038;-87
2022/05/03 03:27:13;;;;;;;10.55;9.45;;;;;;;11.11;76.56;99651.53;1088665;54;20277;-84
2022/05/03 03:28:21;;;;;;;13.05;10.05;;;;;;;11.05;76.87;99647.63;1088597;54;20019;-86
2022/05/03 03:30:28;;;;;;;12.32;9.48;;;;;;;11.20;75.87;99646.03;1094285;39;20245;-84
2022/05/03 03:31:31;;;;;;;11.18;8.82;;;;;;;11.26;75.41;99647.25;1088662;54;20038;-84
2022/05/03 03:32:39;;;;;;;12.15;10.02;;;;;;;11.32;75.40;99652.00;1088693;54;20035;-85
2022/05/03 03:34:50;;;;;;;11.32;8.75;;;;;;;11.53;74.68;99650.72;1088671;54;20011;-84
2022/05/03 03:35:59;;;;;;;10.43;8.93;;;;;;;11.59;74.14;99649.25;1088570;54;21054;-86
2022/05/03 03:37:02;;;;;;;10.02;7.60;;;;;;;11.65;74.11;99652.13;1088765;54;20019;-86
2022/05/03 03:41:13;;;;;;;10.18;8.50;;;;;;;11.78;73.57;99653.50;1104048;39;21345;-86
2022/05/03 03:43:20;;;;;;;9.65;7.43;;;;;;;11.85;73.17;99639.28;1088733;54;20026;-84
2022/05/03 03:46:29;;;;;;;12.43;10.38;;;;;;;11.58;73.84;99653.78;1088941;54;20018;-84
2022/05/03 03:48:38;;;;;;;11.70;10.27;;;;;;;11.41;74.92;99652.03;1088657;54;20030;-85
2022/05/03 03:51:48;;;;;;;12.82;10.45;;;;;;;11.19;75.66;99648.91;1088574;54;20824;-86
2022/05/03 03:52:53;;;;;;;12.73;9.70;;;;;;;11.24;75.48;99652.78;1088672;54;20014;-84
2022/05/03 03:56:03;;;;;;;12.02;9.27;;;;;;;11.34;74.77;99647.28;1088551;54;20031;-86
2022/05/03 03:57:05;;;;;;;10.65;9.02;;;;;;;11.31;74.92;99652.97;1088557;54;20034;-87
2022/05/03 03:58:09;;;;;;;10.85;9.30;;;;;;;11.24;75.11;99657.31;1091558;46;20041;-84
2022/05/03 04:01:18;;;;;;;11.93;9.27;;;;;;;10.97;75.64;99661.78;1088542;54;20013;-88
2022/05/03 04:02:21;;;;;;;12.18;9.63;;;;;;;10.95;76.09;99657.59;1088517;54;20027;-87
2022/05/03 04:03:28;;;;;;;12.15;8.43;;;;;;;10.91;76.19;99657.06;1088619;54;20037;-84
2022/05/03 04:05:38;;;;;;;12.57;9.77;;;;;;;10.92;76.08;99656.09;1088474;54;20275;-84
2022/05/03 04:06:39;;;;;;;11.18;8.95;;;;;;;10.83;76.40;99654.34;1088690;54;20025;-88
2022/05/03 04:07:44;;;;;;;10.52;9.40;;;;;;;10.83;76.50;99655.19;1088632;54;20018;-84
2022/05/03 04:09:51;;;;;;;12.25;9.65;;;;;;;10.84;76.46;99656.03;1088966;54;20017;-86
2022/05/03 04:10:55;;;;;;;9.88;8.70;;;;;;;10.92;76.19;99653.41;1088621;54;20041;-85
2022/05/03 04:11:59;;;;;;;9.65;8.60;;;;;;;10.93;75.94;99649.75;1088748;46;20039;-85
2022/05/03 04:14:05;;;;;;;10.48;9.38;;;;;;;10.84;76.26;99656.84;1088427;54;20007;-86
2022/05/03 04:19:17;;;;;;;12.35;10.02;;;;;;;10.61;77.27;99656.50;1088896;54;20015;-84
2022/05/03 04:21:26;;;;;;;10.80;9.23;;;;;;;10.45;78.13;99667.91;1088957;54;20038;-84
2022/05/03 04:23:32;;;;;;;11.37;10.13;;;;;;;10.39;78.29;99666.69;1083468;54;20037;31
2022/05/03 04:24:33;;;;;;;12.90;10.10;;;;;;;10.38;77.90;99665.03;1088321;54;20045;-79
2022/05/03 04:25:38;;;;;;;12.30;10.30;;;;;;;10.33;78.15;99669.94;1088236;54;20030;-79
2022/05/03 04:26:40;;;;;;;11.40;9.65;;;;;;;10.23;78.41;99670.03;1088325;54;20050;-80
2022/05/03 04:27:44;;;;;;;11.05;9.05;;;;;;;10.26;78.25;99671.53;1088292;54;20038;-79
2022/05/03 04:28:46;;;;;;;10.75;9.13;;;;;;;10.36;77.60;99674.97;1090944;46;20026;-78
2022/05/03 04:29:50;;;;;;;11.25;8.90;;;;;;;10.32;77.67;99673.59;1088324;54;20034;-79
2022/05/03 04:30:52;;;;;;;11.60;8.35;;;;;;;10.27;77.84;99678.56;1088248;54;20023;-79
2022/05/03 04:31:56;;;;;;;9.13;7.72;;;;;;;10.24;77.77;99668.19;1088285;54;20110;-79
2022/05/03 04:33:00;;;;;;;9.43;8.32;;;;;;;10.20;78.03;99675.66;1088313;54;20034;-79
2022/05/03 04:34:03;;;;;;;10.65;8.85;;;;;;;10.19;77.61;99675.81;1088250;54;20037;-80
2022/05/03 04:35:09;;;;;;;9.60;8.20;;;;;;;10.21;77.96;99673.81;1088261;54;20042;-79
2022/05/03 04:36:10;;;;;;;10.98;9.07;;;;;;;10.17;77.85;99680.47;1093026;39;20996;-79
2022/05/03 04:37:17;;;;;;;11.43;8.30;;;;;;;10.15;77.80;99673.44;1087867;54;20041;-80
2022/05/03 04:38:19;;;;;;;10.30;8.70;;;;;;;10.18;77.87;99677.63;1087806;54;20030;-78
2022/05/03 04:39:23;;;;;;;10.85;8.27;;;;;;;10.31;77.37;99679.94;1087899;54;20026;-80
2022/05/03 04:40:25;;;;;;;11.05;8.80;;;;;;;10.39;77.15;99689.91;1087853;54;20042;-80
2022/05/03 04:41:29;;;;;;;10.32;8.52;;;;;;;10.36;77.08;99685.69;1087856;54;20036;-80
2022/05/03 04:42:31;;;;;;;11.02;8.07;;;;;;;10.35;77.24;99689.34;1087879;54;20034;-80
2022/05/03 04:43:35;;;;;;;10.90;9.35;;;;;;;10.38;77.20;99688.22;1088149;54;20123;-79
2022/05/03 04:44:37;;;;;;;11.80;10.23;;;;;;;10.31;77.58;99693.28;1088329;54;20027;-80
2022/05/03 04:45:41;;;;;;;11.65;10.07;;;;;;;10.29;77.98;99689.94;1088231;54;20742;-79
2022/05/03 04:46:43;;;;;;;14.45;10.52;;;;;;;10.30;78.30;99696.94;1088318;54;20018;-79
2022/05/03 04:47:47;;;;;;;15.43;10.48;;;;;;;10.26;78.62;99692.91;1090642;46;20034;-80
2022/05/03 04:48:48;;;;;;;12.38;9.90;;;;;;;10.30;78.49;99689.78;1088272;54;20283;-80
2022/05/03 04:49:53;;;;;;;12.43;9.98;;;;;;;10.36;78.49;99699.03;1095413;39;20586;-79
2022/05/03 04:50:54;;;;;;;12.80;9.98;;;;;;;10.36;78.30;99696.38;1088192;54;20042;-79
2022/05/03 04:51:58;;;;;;;11.85;10.32;;;;;;;10.37;78.16;99700.75;1088250;54;20037;-78
2022/05/03 04:53:02;;;;;;;11.98;10.20;;;;;;;10.33;78.65;99696.66;1087842;54;20042;-80
2022/05/03 04:54:07;;;;;;;12.88;10.13;;;;;;;10.34;78.77;99703.69;1088085;54;20325;-80
2022/05/03 04:55:11;;;;;;;11.20;10.00;;;;;;;10.40;78.23;99711.09;1088163;54;20045;-80
2022/05/03 04:56:17;;;;;;;14.50;10.75;;;;;;;10.44;78.16;99704.47;1088258;54;20095;-79
2022/05/03 04:57:21;;;;;;;12.73;10.98;;;;;;;10.47;78.06;99708.69;1088266;54;20050;-79
2022/05/03 04:58:23;;;;;;;12.65;11.23;;;;;;;10.39;78.62;99716.63;1088305;54;21073;-86
2022/05/03 04:59:27;;;;;;;11.55;10.25;;;;;;;10.47;78.33;99708.69;1088405;54;20076;-86
2022/05/03 05:00:29;;;;;;;16.25;10.85;;;;;;;10.50;78.28;99708.38;1088285;54;20034;-84
2022/05/03 05:01:33;;;;;;;12.88;10.45;;;;;;;10.52;78.15;99700.19;1088440;54;20042;-85
2022/05/03 05:02:35;;;;;;;13.68;10.63;;;;;;;10.54;78.26;99711.59;1088398;54;20035;-84
2022/05/03 05:03:39;;;;;;;13.60;10.13;;;;;;;10.55;78.25;99707.94;1088408;54;20026;-84
2022/05/03 05:04:43;;;;;;;14.90;10.20;;;;;;;10.56;78.14;99705.09;1088379;54;20026;-86
2022/05/03 05:05:44;;;;;;;14.98;10.88;;;;;;;10.56;78.45;99713.09;1088303;54;20040;-85
2022/05/03 05:06:49;;;;;;;14.50;11.52;;;;;;;10.57;78.59;99713.97;1088355;54;20050;-87
2022/05/03 05:07:50;;;;;;;16.60;12.23;;;;;;;10.55;78.49;99715.94;1088384;54;20030;-88
2022/05/03 05:08:57;;;;;;;12.93;11.02;;;;;;;10.52;78.62;99709.06;1088215;54;20026;-87
2022/05/03 05:11:18;;;;;;;15.25;11.32;;;;;;;10.58;79.00;99712.97;1088343;54;20034;-86
2022/05/03 05:12:19;;;;;;;13.75;11.13;;;;;;;10.67;78.59;99714.72;1088342;54;20041;-86
2022/05/03 05:13:24;;;;;;;12.60;10.57;;;;;;;10.75;78.27;99713.94;1094415;39;21027;-86
2022/05/03 05:14:29;;;;;;;12.95;10.23;;;;;;;10.79;78.01;99718.00;1088420;54;20042;-86
2022/05/03 05:15:32;;;;;;;14.07;10.68;;;;;;;10.81;77.79;99710.66;1088213;54;20050;-86
2022/05/03 05:16:36;;;;;;;12.05;10.20;;;;;;;10.79;78.02;99711.78;1089818;47;20034;-87
2022/05/03 05:17:38;;;;;;;14.38;9.95;;;;;;;10.87;77.71;99714.53;1088286;54;20023;-86
2022/05/03 05:18:42;;;;;;;13.65;10.60;;;;;;;10.88;77.82;99702.84;1088295;54;20057;-85
2022/05/03 05:19:44;;;;;;;12.27;10.55;;;;;;;10.93;77.63;99708.59;1088284;54;20062;-84
2022/05/03 05:20:48;;;;;;;13.02;9.80;;;;;;;10.99;77.43;99707.94;1088283;54;20030;-86
2022/05/03 05:21:52;;;;;;;12.52;10.43;;;;;;;11.02;77.15;99710.31;1088256;54;20035;-87
2022/05/03 05:22:54;;;;;;;11.52;9.93;;;;;;;11.04;77.31;99707.47;1088246;54;20057;-86
2022/05/03 05:24:01;;;;;;;11.00;9.70;;;;;;;11.11;77.24;99708.53;1087920;54;20037;-84
2022/05/03 05:25:02;;;;;;;11.50;9.05;;;;;;;11.24;76.95;99702.78;1088166;54;20033;-84
2022/05/03 05:26:07;;;;;;;12.45;9.07;;;;;;;11.33;76.30;99709.88;1087868;54;20077;-86
2022/05/03 05:27:09;;;;;;;12.25;9.82;;;;;;;11.42;76.04;99704.56;1088098;54;20026;-83
2022/05/03 05:28:13;;;;;;;10.27;8.85;;;;;;;11.53;75.67;99697.09;1088264;54;20042;-85
2022/05/03 05:29:17;;;;;;;10.00;8.63;;;;;;;11.60;75.48;99699.13;1088232;54;20034;-84
2022/05/03 05:30:19;;;;;;;11.05;8.75;;;;;;;11.66;74.95;99699.31;1088224;54;20045;-86
2022/05/03 05:31:23;;;;;;;10.82;9.05;;;;;;;11.68;75.08;99701.81;1088259;54;20030;-85
2022/05/03 05:32:25;;;;;;;12.25;8.77;;;;;;;11.74;74.90;99700.34;1088250;54;20027;-86
2022/05/03 05:33:29;;;;;;;17.30;10.07;;;;;;;11.74;74.57;99701.19;1088206;54;20034;-85
2022/05/03 05:34:31;;;;;;;11.35;9.25;;;;;;;11.70;74.69;99700.69;1088897;46;20050;-85
2022/05/03 05:35:35;;;;;;;16.25;9.35;;;;;;;11.72;74.58;99703.19;1088173;54;20038;-85
2022/05/03 05:36:39;;;;;;;13.38;9.35;;;;;;;11.72;74.87;99703.19;1088242;54;20041;-84
2022/05/03 05:37:41;;;;;;;13.57;9.43;;;;;;;11.73;74.53;99707.56;1088247;54;20049;-85
2022/05/03 05:38:45;;;;;;;11.60;8.85;;;;;;;11.87;74.60;99711.47;1088228;54;20033;-84
2022/05/03 05:39:49;;;;;;;14.52;9.82;;;;;;;11.89;74.13;99712.16;1088247;54;20018;-85
2022/05/03 05:40:54;;;;;;;15.68;10.07;;;;;;;11.89;74.08;99709.47;1088005;54;20042;-85
2022/05/03 05:41:56;;;;;;;10.48;9.38;;;;;;;11.96;73.95;99712.31;1087937;54;20031;-84
2022/05/03 05:43:02;;;;;;;10.77;9.68;;;;;;;11.99;73.73;99712.03;1087834;54;20103;-86
2022/05/03 05:44:04;;;;;;;16.02;11.00;;;;;;;11.96;73.97;99715.00;1087821;54;20034;-84
2022/05/03 05:45:10;;;;;;;14.55;10.25;;;;;;;11.94;73.74;99712.50;1088037;54;20658;-85
2022/05/03 05:46:14;;;;;;;13.65;10.57;;;;;;;11.96;74.12;99721.22;1088322;54;20038;-85
2022/05/03 05:47:17;;;;;;;13.98;10.40;;;;;;;11.97;74.01;99719.34;1088205;54;20034;-83
2022/05/03 05:48:21;;;;;;;14.73;9.88;;;;;;;12.01;73.68;99718.06;1088261;54;20026;-85
2022/05/03 05:49:23;;;;;;;20.55;10.85;;;;;;;12.02;73.61;99720.59;1088255;54;20730;-85
2022/05/03 05:50:29;;;;;;;17.58;11.93;;;;;;;11.95;73.58;99719.53;1088231;54;20064;-83
2022/05/03 05:51:30;;;;;;;19.33;11.50;;;;;;;11.91;74.07;99714.66;1088185;54;20046;-84
2022/05/03 05:53:54;;;;;;;14.07;9.93;;;;;;;12.11;73.38;99724.13;1088145;54;20017;-86
2022/05/03 05:54:58;;;;;;;13.75;9.10;;;;;;;12.20;73.24;99724.97;1088067;54;20039;-84
2022/05/03 05:56:03;;;;;;;16.80;9.98;;;;;;;12.17;73.14;99730.69;1088127;54;20035;-84
2022/05/03 05:57:05;;;;;;;14.07;9.65;;;;;;;12.26;73.05;99724.34;1088266;54;20045;-85
2022/05/03 05:58:09;;;;;;;11.45;9.10;;;;;;;12.29;73.08;99724.00;1088308;54;20026;-84
2022/05/03 05:59:14;;;;;;;12.25;8.57;;;;;;;12.37;72.68;99725.03;1088328;54;20027;-85
2022/05/03 06:00:16;;;;;;;14.70;10.15;;;;;;;12.37;72.58;99722.38;1087928;54;20050;-85
2022/05/03 06:01:26;;;;;;;12.75;8.73;;;;;;;12.45;72.18;99719.69;1087894;54;20077;-84
2022/05/03 06:02:28;;;;;;;10.60;8.60;;;;;;;12.47;72.39;99717.66;1088250;54;20038;-84
2022/05/03 06:03:34;;;;;;;11.82;9.18;;;;;;;12.46;72.18;99719.53;1088256;54;20029;-84
2022/05/03 06:04:35;;;;;;;12.25;10.10;;;;;;;12.46;72.17;99713.34;1088197;54;20027;-87
2022/05/03 06:05:40;;;;;;;12.70;9.88;;;;;;;12.46;72.13;99721.38;1088167;54;20026;-82
2022/05/03 06:06:44;;;;;;;25.27;12.20;;;;;;;12.24;72.61;99721.00;1088210;54;20099;-85
2022/05/03 06:07:46;;;;;;;16.42;12.18;;;;;;;12.23;73.23;99722.00;1088263;54;20030;-84
2022/05/03 06:08:51;;;;;;;19.65;11.63;;;;;;;12.21;73.00;99720.47;1089664;39;20566;-86
2022/05/03 06:09:52;;;;;;;22.30;14.13;;;;;;;12.15;73.37;99725.47;1088224;54;20030;-86
2022/05/03 06:11:01;;;;;;;19.73;12.45;;;;;;;12.20;73.28;99726.84;1088229;54;20035;-85
2022/05/03 06:12:03;;;;;;;26.23;12.10;;;;;;;12.25;72.89;99721.81;1088265;54;20050;-84
2022/05/03 06:13:10;;;;;;;20.50;11.88;;;;;;;12.25;73.07;99720.00;1088122;54;20046;-86
2022/05/03 06:14:12;;;;;;;14.98;11.40;;;;;;;12.37;72.60;99731.22;1088244;54;20019;-84
2022/05/03 06:15:16;;;;;;;14.45;11.48;;;;;;;12.48;72.45;99725.56;1088152;54;20018;-84
2022/05/03 06:16:20;;;;;;;15.27;11.00;;;;;;;12.53;72.11;99717.03;1090609;39;20573;-85
2022/05/03 06:17:22;;;;;;;12.70;10.20;;;;;;;12.59;71.78;99716.34;1087857;54;20034;-84
2022/05/03 06:18:27;;;;;;;16.88;11.20;;;;;;;12.58;71.79;99721.88;1088106;54;20025;-85
2022/05/03 06:19:28;;;;;;;12.90;9.98;;;;;;;12.68;71.47;99719.03;1097911;39;20243;-88
2022/05/03 06:20:33;;;;;;;16.25;10.30;;;;;;;12.73;71.54;99712.16;1088163;54;20777;-83
2022/05/03 06:21:35;;;;;;;13.23;10.80;;;;;;;12.80;71.08;99717.72;1088207;54;20082;-82
2022/05/03 06:22:39;;;;;;;12.25;10.30;;;;;;;12.87;71.21;99717.88;1088285;54;20053;-86
2022/05/03 06:23:43;;;;;;;13.35;10.95;;;;;;;12.86;70.73;99719.72;1088219;54;20037;-84
2022/05/03 06:24:47;;;;;;;15.38;11.23;;;;;;;12.88;70.99;99712.34;1087753;54;20037;-84
2022/05/03 06:25:52;;;;;;;11.65;10.38;;;;;;;12.96;70.53;99722.25;1088133;54;20036;-85
2022/05/03 06:26:56;;;;;;;12.57;11.13;;;;;;;13.04;70.51;99708.81;1088246;54;20035;-85
2022/05/03 06:28:00;;;;;;;13.65;10.50;;;;;;;13.11;70.23;99723.22;1088129;54;20037;-83
2022/05/03 06:29:02;;;;;;;13.05;11.50;;;;;;;13.11;70.16;99717.03;1088196;54;20029;-82
2022/05/03 06:30:07;;;;;;;13.10;11.65;;;;;;;13.16;69.96;99716.53;1088263;54;20049;-84
2022/05/03 06:31:09;;;;;;;13.38;11.98;;;;;;;13.22;69.88;99715.84;1088214;54;20131;-83
2022/05/03 06:32:13;;;;;;;14.57;12.48;;;;;;;13.29;69.86;99716.00;1087914;46;20062;-85
2022/05/03 06:33:17;;;;;;;15.45;13.80;;;;;;;13.33;69.61;99709.28;1087791;54;20034;-84
2022/05/03 06:34:19;;;;;;;17.15;15.43;;;;;;;13.28;69.60;99715.16;1087806;54;20034;-82
2022/05/03 06:35:23;;;;;;;17.27;15.63;;;;;;;13.35;69.43;99718.00;1087726;54;20031;-85
2022/05/03 06:36:27;;;;;;;20.40;18.17;;;;;;;13.33;69.42;99715.50;1087854;54;20033;-84
2022/05/03 06:37:29;;;;;;;18.58;16.63;;;;;;;13.40;69.62;99710.31;1087801;54;20042;-85
2022/05/03 06:38:33;;;;;;;18.42;16.52;;;;;;;13.46;69.14;99712.31;1087858;54;20041;-83
2022/05/03 06:39:35;;;;;;;19.10;17.10;;;;;;;13.51;69.14;99714.47;1088207;54;20036;-84
2022/05/03 06:40:39;;;;;;;21.35;19.02;;;;;;;13.49;69.26;99714.66;1088035;54;20725;-83
2022/05/03 06:41:41;;;;;;;22.05;19.85;;;;;;;13.46;69.22;99716.84;1088206;54;20030;-83
2022/05/03 06:42:47;;;;;;;28.73;24.55;;;;;;;13.26;69.80;99715.31;1088109;54;20018;-83
2022/05/03 06:43:51;;;;;;;28.15;25.38;;;;;;;13.09;70.15;99716.38;1088144;54;20042;-83
2022/05/03 06:44:53;;;;;;;27.73;24.92;;;;;;;13.22;69.78;99714.00;1088160;54;20062;-83
2022/05/03 06:45:57;;;;;;;29.38;26.40;;;;;;;13.18;69.92;99720.72;1088179;54;20018;-81
2022/05/03 06:47:01;;;;;;;26.95;24.35;;;;;;;13.20;70.22;99717.84;1088544;47;20018;-79
2022/05/03 06:48:06;;;;;;;26.95;24.25;;;;;;;13.23;70.06;99717.53;1088147;54;20034;-79
2022/05/03 06:49:11;;;;;;;22.40;20.30;;;;;;;13.43;69.25;99720.69;1088692;47;20034;-84
2022/05/03 06:50:15;;;;;;;20.15;17.83;;;;;;;13.59;68.84;99721.69;1088240;54;20083;-83
2022/05/03 06:52:25;;;;;;;18.80;16.83;;;;;;;13.81;68.12;99720.91;1088269;54;20090;-86
2022/05/03 06:54:33;;;;;;;17.15;14.98;;;;;;;13.89;67.81;99720.03;1087376;54;20049;-87
2022/05/03 06:55:37;;;;;;;18.67;16.77;;;;;;;13.93;68.11;99723.22;1089275;47;20056;-87
2022/05/03 06:57:55;;;;;;;18.60;15.02;;;;;;;14.14;66.98;99707.34;1088303;54;20029;-86
2022/05/03 06:58:57;;;;;;;14.73;13.25;;;;;;;14.25;66.94;99713.34;1088275;54;20042;-85
2022/05/03 07:00:05;;;;;;;14.48;12.98;;;;;;;14.26;66.82;99717.69;1088330;54;20026;-86
2022/05/03 07:01:08;;;;;;;14.85;13.32;;;;;;;14.38;66.75;99704.69;1090751;47;20042;-85
2022/05/03 07:02:12;;;;;;;15.18;12.55;;;;;;;14.49;66.54;99709.66;1088313;54;20034;-87
2022/05/03 07:03:17;;;;;;;13.88;12.45;;;;;;;14.54;66.24;99709.94;1088042;54;20034;-87
2022/05/03 07:04:19;;;;;;;15.15;13.57;;;;;;;14.56;66.25;99713.28;1088002;54;20035;-85
2022/05/03 07:05:23;;;;;;;13.63;12.30;;;;;;;14.70;65.68;99713.53;1088208;54;20034;-86
2022/05/03 07:06:25;;;;;;;15.48;13.95;;;;;;;14.75;65.44;99714.69;1088286;54;20026;-86
2022/05/03 07:08:54;;;;;;;14.68;13.18;;;;;;;14.88;64.89;99710.56;1088279;54;20053;-86
2022/05/03 11:49:32;;;;;;;3.85;2.45;;;;;;;22.37;35.71;99559.91;1091746;39;20412;-79
2022/05/03 11:56:55;;;;;;;4.90;2.85;;;;;;;22.58;36.07;99551.16;1088014;54;20025;-79
2022/05/03 11:58:03;;;;;;;4.97;2.63;;;;;;;22.61;36.11;99557.22;1088293;46;20097;-79
2022/05/03 11:59:07;;;;;;;6.00;2.85;;;;;;;22.31;36.57;99556.22;1088904;46;20045;-79
2022/05/03 12:00:14;;;;;;;6.15;2.97;;;;;;;22.22;37.11;99566.59;1088200;54;20034;-81
2022/05/03 12:01:20;;;;;;;4.70;3.10;;;;;;;22.26;36.88;99558.78;1087845;46;20329;-78
2022/05/03 12:02:29;;;;;;;4.63;2.80;;;;;;;22.28;37.00;99560.25;1088731;46;20026;-78
2022/05/03 12:03:47;;;;;;;4.40;2.92;;;;;;;22.06;36.99;99559.13;1088357;54;20046;-79
2022/05/03 12:05:11;;;;;;;4.75;2.70;;;;;;;22.27;36.40;99555.88;1090910;46;21140;-78
2022/05/03 12:06:19;;;;;;;4.13;2.60;;;;;;;22.45;36.27;99559.59;1087878;54;20102;-78
2022/05/03 12:07:21;;;;;;;3.83;2.50;;;;;;;22.47;36.18;99554.75;1088031;46;20041;-79
2022/05/03 12:08:25;;;;;;;5.93;3.00;;;;;;;22.52;36.21;99557.56;1088013;47;20031;-78
2022/05/03 12:09:36;;;;;;;3.88;2.65;;;;;;;22.57;36.50;99559.59;1087844;54;20030;-78
2022/05/03 12:10:42;;;;;;;5.63;2.70;;;;;;;22.62;36.70;99553.44;1087978;54;20038;-79
2022/05/03 12:13:16;;;;;;;4.50;2.70;;;;;;;22.84;35.86;99554.50;1087934;54;20042;-79
2022/05/03 12:14:33;;;;;;;4.22;2.90;;;;;;;22.56;35.92;99556.03;1088067;54;20035;-78
2022/05/03 12:15:38;;;;;;;5.15;2.92;;;;;;;22.67;35.83;99564.47;1089255;47;20073;-78
2022/05/03 12:16:42;;;;;;;4.03;2.60;;;;;;;22.76;35.90;99554.88;1087775;54;20081;-78
2022/05/03 12:17:59;;;;;;;4.25;2.45;;;;;;;22.64;35.42;99554.03;1089155;46;20046;-78
2022/05/03 12:19:03;;;;;;;5.72;3.10;;;;;;;22.58;35.24;99562.06;1087886;54;20039;-78
2022/05/03 12:20:08;;;;;;;4.20;2.53;;;;;;;22.27;34.33;99557.75;1089038;46;20038;-79
2022/05/03 12:21:14;;;;;;;4.32;2.70;;;;;;;22.15;35.11;99562.34;1088971;46;20030;-79
2022/05/03 12:22:20;;;;;;;4.97;2.90;;;;;;;22.03;35.41;99565.00;1088639;46;20054;-79
2022/05/03 12:23:26;;;;;;;5.53;2.88;;;;;;;21.91;35.14;99567.72;1087966;54;20023;-77
2022/05/03 12:24:37;;;;;;;5.72;2.60;;;;;;;21.92;34.66;99567.47;1088385;46;20026;-78
2022/05/03 12:25:40;;;;;;;5.60;2.70;;;;;;;22.01;34.64;99564.44;1087745;54;20039;-79
2022/05/03 12:26:44;;;;;;;4.75;3.00;;;;;;;21.98;34.44;99565.72;1088666;46;20037;-79
2022/05/03 12:28:08;;;;;;;4.50;2.58;;;;;;;22.05;34.27;99561.03;1088202;54;20038;-81
2022/05/03 12:52:23;;;;;;;4.47;2.53;;;;;;;22.47;33.61;99553.91;1085632;54;20019;-81
2022/05/03 12:53:26;;;;;;;5.28;2.70;;;;;;;22.33;34.04;99559.53;1086025;54;20015;-80
2022/05/03 12:54:42;;;;;;;5.80;2.50;;;;;;;22.22;33.92;99547.56;1086240;54;20129;-79
2022/05/03 12:55:44;;;;;;;4.28;2.75;;;;;;;22.24;33.62;99556.31;1087574;54;20039;-78
2022/05/03 12:59:22;;;;;;;4.68;2.22;;;;;;;22.31;34.04;99549.94;1086046;39;20423;-79
2022/05/03 13:00:26;;;;;;;4.43;2.50;;;;;;;22.48;34.13;99553.69;1084726;54;20038;-78
2022/05/03 13:01:28;;;;;;;4.47;2.97;;;;;;;22.48;35.25;99561.00;1084213;54;20050;-77
2022/05/03 13:02:33;;;;;;;4.82;2.78;;;;;;;22.37;36.47;99554.47;1084264;54;20056;-78
2022/05/03 13:03:38;;;;;;;5.03;3.10;;;;;;;22.56;36.32;99553.31;1084994;39;20418;-79
2022/05/03 13:04:42;;;;;;;7.82;2.90;;;;;;;22.56;36.74;99547.88;1085270;54;20065;-78
2022/05/03 13:05:47;;;;;;;4.70;2.50;;;;;;;22.48;36.73;99545.50;1085028;54;20568;-80
2022/05/03 13:06:51;;;;;;;4.43;2.70;;;;;;;22.40;37.30;99548.56;1084928;54;20590;-79
2022/05/03 13:07:58;;;;;;;5.10;2.60;;;;;;;22.39;37.50;99549.59;1085084;54;20299;-79
2022/05/03 13:09:00;;;;;;;5.15;3.20;;;;;;;22.35;37.44;99553.84;1086133;39;20449;-79
2022/05/03 13:10:04;;;;;;;5.93;3.25;;;;;;;22.33;38.06;99559.53;1086139;54;20026;-79
2022/05/03 13:11:07;;;;;;;6.07;2.85;;;;;;;22.23;38.59;99554.66;1087994;54;20038;-79
2022/05/03 13:12:14;;;;;;;5.07;3.35;;;;;;;22.05;39.29;99555.59;1087625;54;20034;-80
2022/05/03 13:13:18;;;;;;;4.70;2.92;;;;;;;22.14;39.62;99556.06;1088231;54;20018;-81
2022/05/03 13:14:23;;;;;;;4.88;3.03;;;;;;;22.10;39.96;99557.59;1088092;54;20576;-81
2022/05/03 13:15:30;;;;;;;7.30;3.22;;;;;;;21.98;40.79;99554.81;1100785;31;20732;-81
2022/05/03 13:16:32;;;;;;;5.28;3.17;;;;;;;21.84;41.00;99556.09;1088235;54;20095;-80
2022/05/03 13:17:37;;;;;;;5.38;4.03;;;;;;;21.92;41.12;99553.84;1087892;54;20038;-80
2022/05/03 13:18:39;;;;;;;6.18;4.05;;;;;;;21.86;41.35;99551.25;1086054;54;20043;-80
2022/05/03 13:19:44;;;;;;;9.13;4.53;;;;;;;21.94;41.57;99557.19;1086080;54;20057;-79
2022/05/03 13:20:46;;;;;;;5.68;3.97;;;;;;;21.97;41.37;99562.19;1087248;39;20463;-79
2022/05/03 13:21:53;;;;;;;5.65;3.80;;;;;;;21.97;41.49;99556.72;1085661;54;20033;-79
2022/05/03 13:23:01;;;;;;;6.10;4.38;;;;;;;21.97;41.43;99556.72;1086364;54;20034;-80
2022/05/03 13:24:12;;;;;;;7.15;4.28;;;;;;;22.04;41.00;99562.09;1086606;54;20036;-80
2022/05/03 13:25:17;;;;;;;7.00;4.20;;;;;;;22.07;40.94;99561.59;1086503;54;20030;-80